Terminal Aerodrome Forecast
Issued by NWS Jacksonville, FL

Home | Current Version | Previous Version | Text Only | Print | Product List | Glossary On
Versions: 1 2 3 4 5 6 7 8 9 10 11 12 13 14 15 16 17 18 19 20 21 22 23 24
000
FTUS42 KJAX 011700
TAFJAX
TAF
KJAX 011723Z 0118/0218 05008KT P6SM VCSH BKN030 OVC060
     FM020000 05002KT P6SM SCT030 BKN060
     FM020800 00000KT 4SM BR BKN030 BKN060
     FM021300 05006KT P6SM SCT030 BKN060=

USA.gov is the U.S. government's official web portal to all federal, state and local government web resources and services.